sensor_id;sensor_type;location;lat;lon;timestamp;temperature;humidity
70734;DHT22;58320;48.804;9.252;2022-11-22T00:00:06;6.00;88.00
70734;DHT22;58320;48.804;9.252;2022-11-22T00:02:33;6.00;88.70
70734;DHT22;58320;48.804;9.252;2022-11-22T00:04:59;6.00;89.20
70734;DHT22;58320;48.804;9.252;2022-11-22T00:07:25;6.00;89.60
70734;DHT22;58320;48.804;9.252;2022-11-22T00:09:51;6.00;89.60
70734;DHT22;58320;48.804;9.252;2022-11-22T00:12:17;6.00;88.80
70734;DHT22;58320;48.804;9.252;2022-11-22T00:14:42;6.00;89.80
70734;DHT22;58320;48.804;9.252;2022-11-22T00:17:08;6.00;89.60
70734;DHT22;58320;48.804;9.252;2022-11-22T00:19:34;6.00;90.20
70734;DHT22;58320;48.804;9.252;2022-11-22T00:22:00;6.00;91.00
70734;DHT22;58320;48.804;9.252;2022-11-22T00:24:26;5.90;90.90
70734;DHT22;58320;48.804;9.252;2022-11-22T00:26:52;5.90;91.30
70734;DHT22;58320;48.804;9.252;2022-11-22T00:29:18;5.90;91.80
70734;DHT22;58320;48.804;9.252;2022-11-22T00:31:44;5.90;91.40
70734;DHT22;58320;48.804;9.252;2022-11-22T00:34:09;5.90;92.00
70734;DHT22;58320;48.804;9.252;2022-11-22T00:36:35;5.90;92.70
70734;DHT22;58320;48.804;9.252;2022-11-22T00:39:01;5.90;92.70
70734;DHT22;58320;48.804;9.252;2022-11-22T00:41:27;5.80;92.10
70734;DHT22;58320;48.804;9.252;2022-11-22T00:43:53;5.90;91.00
70734;DHT22;58320;48.804;9.252;2022-11-22T00:46:18;5.90;91.20
70734;DHT22;58320;48.804;9.252;2022-11-22T00:48:44;5.90;90.70
70734;DHT22;58320;48.804;9.252;2022-11-22T00:51:10;5.90;90.90
70734;DHT22;58320;48.804;9.252;2022-11-22T00:53:36;5.90;90.90
70734;DHT22;58320;48.804;9.252;2022-11-22T00:56:02;5.90;91.50
70734;DHT22;58320;48.804;9.252;2022-11-22T00:58:28;5.90;92.20
70734;DHT22;58320;48.804;9.252;2022-11-22T01:00:54;5.80;92.00
70734;DHT22;58320;48.804;9.252;2022-11-22T01:03:20;5.80;92.10
70734;DHT22;58320;48.804;9.252;2022-11-22T01:05:46;5.80;91.80
70734;DHT22;58320;48.804;9.252;2022-11-22T01:08:12;5.90;91.90
70734;DHT22;58320;48.804;9.252;2022-11-22T01:10:38;5.90;91.80
70734;DHT22;58320;48.804;9.252;2022-11-22T01:13:04;5.90;91.70
70734;DHT22;58320;48.804;9.252;2022-11-22T01:15:31;5.90;91.10
70734;DHT22;58320;48.804;9.252;2022-11-22T01:17:57;5.90;91.00
70734;DHT22;58320;48.804;9.252;2022-11-22T01:20:23;5.90;91.70
70734;DHT22;58320;48.804;9.252;2022-11-22T01:22:49;5.90;91.90
70734;DHT22;58320;48.804;9.252;2022-11-22T01:25:15;5.90;91.70
70734;DHT22;58320;48.804;9.252;2022-11-22T01:27:41;5.90;92.00
70734;DHT22;58320;48.804;9.252;2022-11-22T01:30:07;5.90;92.10
70734;DHT22;58320;48.804;9.252;2022-11-22T01:32:33;5.90;91.60
70734;DHT22;58320;48.804;9.252;2022-11-22T01:34:59;5.90;91.50
70734;DHT22;58320;48.804;9.252;2022-11-22T01:37:24;6.00;92.10
70734;DHT22;58320;48.804;9.252;2022-11-22T01:39:50;6.00;92.40
70734;DHT22;58320;48.804;9.252;2022-11-22T01:42:16;6.00;91.80
70734;DHT22;58320;48.804;9.252;2022-11-22T01:44:42;6.00;91.40
70734;DHT22;58320;48.804;9.252;2022-11-22T01:47:20;6.00;91.80
70734;DHT22;58320;48.804;9.252;2022-11-22T01:49:54;6.00;92.10
70734;DHT22;58320;48.804;9.252;2022-11-22T01:52:25;6.00;92.00
70734;DHT22;58320;48.804;9.252;2022-11-22T01:55:03;6.00;91.80
70734;DHT22;58320;48.804;9.252;2022-11-22T01:57:35;6.10;91.40
70734;DHT22;58320;48.804;9.252;2022-11-22T02:00:11;6.10;91.50
70734;DHT22;58320;48.804;9.252;2022-11-22T02:02:40;6.10;91.70
70734;DHT22;58320;48.804;9.252;2022-11-22T02:05:10;6.20;91.40
70734;DHT22;58320;48.804;9.252;2022-11-22T02:07:51;6.20;91.30
70734;DHT22;58320;48.804;9.252;2022-11-22T02:10:22;6.20;91.30
70734;DHT22;58320;48.804;9.252;2022-11-22T02:12:50;6.30;91.30
70734;DHT22;58320;48.804;9.252;2022-11-22T02:15:16;6.30;90.90
70734;DHT22;58320;48.804;9.252;2022-11-22T02:17:42;6.30;90.90
70734;DHT22;58320;48.804;9.252;2022-11-22T02:20:08;6.30;90.60
70734;DHT22;58320;48.804;9.252;2022-11-22T02:28:11;6.40;90.40
70734;DHT22;58320;48.804;9.252;2022-11-22T02:30:39;6.40;90.90
70734;DHT22;58320;48.804;9.252;2022-11-22T02:33:06;6.40;90.70
70734;DHT22;58320;48.804;9.252;2022-11-22T02:35:32;6.50;91.50
70734;DHT22;58320;48.804;9.252;2022-11-22T02:40:41;6.50;92.10
70734;DHT22;58320;48.804;9.252;2022-11-22T02:43:15;6.50;92.60
70734;DHT22;58320;48.804;9.252;2022-11-22T02:45:43;6.50;92.90
70734;DHT22;58320;48.804;9.252;2022-11-22T02:48:14;6.40;94.00
70734;DHT22;58320;48.804;9.252;2022-11-22T02:50:41;6.40;93.20
70734;DHT22;58320;48.804;9.252;2022-11-22T02:53:09;6.40;93.60
70734;DHT22;58320;48.804;9.252;2022-11-22T02:55:35;6.30;94.10
70734;DHT22;58320;48.804;9.252;2022-11-22T02:58:02;6.30;94.40
70734;DHT22;58320;48.804;9.252;2022-11-22T03:00:33;6.30;94.60
70734;DHT22;58320;48.804;9.252;2022-11-22T03:03:00;6.20;95.00
70734;DHT22;58320;48.804;9.252;2022-11-22T03:05:26;6.20;95.10
70734;DHT22;58320;48.804;9.252;2022-11-22T03:07:51;6.20;94.60
70734;DHT22;58320;48.804;9.252;2022-11-22T03:10:17;6.20;94.40
70734;DHT22;58320;48.804;9.252;2022-11-22T03:12:43;6.20;94.40
70734;DHT22;58320;48.804;9.252;2022-11-22T03:15:09;6.10;94.70
70734;DHT22;58320;48.804;9.252;2022-11-22T03:17:35;6.10;94.50
70734;DHT22;58320;48.804;9.252;2022-11-22T03:20:01;6.10;94.60
70734;DHT22;58320;48.804;9.252;2022-11-22T03:22:26;6.10;94.70
70734;DHT22;58320;48.804;9.252;2022-11-22T03:24:52;6.10;94.70
70734;DHT22;58320;48.804;9.252;2022-11-22T03:27:18;6.00;94.90
70734;DHT22;58320;48.804;9.252;2022-11-22T03:29:44;6.00;95.20
70734;DHT22;58320;48.804;9.252;2022-11-22T03:32:09;6.10;95.00
70734;DHT22;58320;48.804;9.252;2022-11-22T03:34:35;6.10;94.90
70734;DHT22;58320;48.804;9.252;2022-11-22T03:37:01;6.10;95.10
70734;DHT22;58320;48.804;9.252;2022-11-22T03:39:27;6.10;95.20
70734;DHT22;58320;48.804;9.252;2022-11-22T03:41:53;6.10;95.10
70734;DHT22;58320;48.804;9.252;2022-11-22T03:44:21;6.10;95.20
70734;DHT22;58320;48.804;9.252;2022-11-22T03:46:47;6.10;95.40
70734;DHT22;58320;48.804;9.252;2022-11-22T03:49:13;6.10;95.60
70734;DHT22;58320;48.804;9.252;2022-11-22T03:51:39;6.10;95.60
70734;DHT22;58320;48.804;9.252;2022-11-22T03:54:05;6.00;95.70
70734;DHT22;58320;48.804;9.252;2022-11-22T03:56:30;6.00;95.70
70734;DHT22;58320;48.804;9.252;2022-11-22T03:58:56;6.00;96.10
70734;DHT22;58320;48.804;9.252;2022-11-22T04:01:22;5.90;96.00
70734;DHT22;58320;48.804;9.252;2022-11-22T04:03:48;5.90;96.20
70734;DHT22;58320;48.804;9.252;2022-11-22T04:06:14;5.90;96.40
70734;DHT22;58320;48.804;9.252;2022-11-22T04:08:40;5.90;96.60
70734;DHT22;58320;48.804;9.252;2022-11-22T04:11:05;5.80;96.80
70734;DHT22;58320;48.804;9.252;2022-11-22T04:13:31;5.80;96.90
70734;DHT22;58320;48.804;9.252;2022-11-22T04:16:15;5.80;97.10
70734;DHT22;58320;48.804;9.252;2022-11-22T04:18:41;5.80;97.00
70734;DHT22;58320;48.804;9.252;2022-11-22T04:21:07;5.80;97.00
70734;DHT22;58320;48.804;9.252;2022-11-22T04:23:51;5.70;97.00
70734;DHT22;58320;48.804;9.252;2022-11-22T04:26:37;5.70;97.20
70734;DHT22;58320;48.804;9.252;2022-11-22T04:29:02;5.70;97.10
70734;DHT22;58320;48.804;9.252;2022-11-22T04:31:28;5.70;97.30
70734;DHT22;58320;48.804;9.252;2022-11-22T04:34:13;5.70;97.10
70734;DHT22;58320;48.804;9.252;2022-11-22T04:36:39;5.70;97.50
70734;DHT22;58320;48.804;9.252;2022-11-22T04:39:04;5.70;97.20
70734;DHT22;58320;48.804;9.252;2022-11-22T04:41:30;5.70;96.90
70734;DHT22;58320;48.804;9.252;2022-11-22T04:43:56;5.70;96.90
70734;DHT22;58320;48.804;9.252;2022-11-22T04:46:40;5.60;97.00
70734;DHT22;58320;48.804;9.252;2022-11-22T04:49:06;5.50;97.00
70734;DHT22;58320;48.804;9.252;2022-11-22T04:51:31;5.50;97.20
70734;DHT22;58320;48.804;9.252;2022-11-22T04:54:15;5.50;97.10
70734;DHT22;58320;48.804;9.252;2022-11-22T04:56:41;5.40;97.10
70734;DHT22;58320;48.804;9.252;2022-11-22T04:59:07;5.40;97.10
70734;DHT22;58320;48.804;9.252;2022-11-22T05:01:33;5.30;97.30
70734;DHT22;58320;48.804;9.252;2022-11-22T05:03:58;5.20;97.70
70734;DHT22;58320;48.804;9.252;2022-11-22T05:06:24;5.20;98.50
70734;DHT22;58320;48.804;9.252;2022-11-22T05:08:50;5.10;98.30
70734;DHT22;58320;48.804;9.252;2022-11-22T05:11:16;5.10;98.30
70734;DHT22;58320;48.804;9.252;2022-11-22T05:13:43;5.00;98.50
70734;DHT22;58320;48.804;9.252;2022-11-22T05:16:11;5.00;98.70
70734;DHT22;58320;48.804;9.252;2022-11-22T05:18:39;5.00;98.90
70734;DHT22;58320;48.804;9.252;2022-11-22T05:21:10;4.90;99.20
70734;DHT22;58320;48.804;9.252;2022-11-22T05:23:37;5.00;99.40
70734;DHT22;58320;48.804;9.252;2022-11-22T05:26:29;5.00;99.50
70734;DHT22;58320;48.804;9.252;2022-11-22T05:28:56;5.00;99.60
70734;DHT22;58320;48.804;9.252;2022-11-22T05:31:26;5.10;99.00
70734;DHT22;58320;48.804;9.252;2022-11-22T05:33:54;5.10;98.80
70734;DHT22;58320;48.804;9.252;2022-11-22T05:36:22;5.10;98.80
70734;DHT22;58320;48.804;9.252;2022-11-22T05:38:48;5.10;98.80
70734;DHT22;58320;48.804;9.252;2022-11-22T05:41:15;5.10;98.60
70734;DHT22;58320;48.804;9.252;2022-11-22T05:43:42;5.20;98.60
70734;DHT22;58320;48.804;9.252;2022-11-22T05:46:15;5.20;98.40
70734;DHT22;58320;48.804;9.252;2022-11-22T05:48:45;5.20;97.90
70734;DHT22;58320;48.804;9.252;2022-11-22T05:51:17;5.30;97.40
70734;DHT22;58320;48.804;9.252;2022-11-22T05:53:44;5.30;97.50
70734;DHT22;58320;48.804;9.252;2022-11-22T05:56:13;5.40;96.90
70734;DHT22;58320;48.804;9.252;2022-11-22T05:58:41;5.40;96.70
70734;DHT22;58320;48.804;9.252;2022-11-22T06:01:19;5.50;96.80
70734;DHT22;58320;48.804;9.252;2022-11-22T06:03:46;5.50;96.70
70734;DHT22;58320;48.804;9.252;2022-11-22T06:06:13;5.60;96.20
70734;DHT22;58320;48.804;9.252;2022-11-22T06:08:41;5.60;96.10
70734;DHT22;58320;48.804;9.252;2022-11-22T06:11:17;5.60;95.40
70734;DHT22;58320;48.804;9.252;2022-11-22T06:13:50;5.60;95.30
70734;DHT22;58320;48.804;9.252;2022-11-22T06:16:28;5.60;95.40
70734;DHT22;58320;48.804;9.252;2022-11-22T06:18:54;5.60;95.20
70734;DHT22;58320;48.804;9.252;2022-11-22T06:21:22;5.60;95.30
70734;DHT22;58320;48.804;9.252;2022-11-22T06:23:50;5.60;95.50
70734;DHT22;58320;48.804;9.252;2022-11-22T06:26:18;5.60;95.40
70734;DHT22;58320;48.804;9.252;2022-11-22T06:28:45;5.60;95.40
70734;DHT22;58320;48.804;9.252;2022-11-22T06:31:14;5.60;95.30
70734;DHT22;58320;48.804;9.252;2022-11-22T06:33:41;5.60;95.40
70734;DHT22;58320;48.804;9.252;2022-11-22T06:36:18;5.50;95.60
70734;DHT22;58320;48.804;9.252;2022-11-22T06:38:45;5.50;95.60
70734;DHT22;58320;48.804;9.252;2022-11-22T06:41:13;5.50;95.80
70734;DHT22;58320;48.804;9.252;2022-11-22T06:43:45;5.50;95.90
70734;DHT22;58320;48.804;9.252;2022-11-22T06:46:13;5.50;95.90
70734;DHT22;58320;48.804;9.252;2022-11-22T06:48:40;5.50;96.00
70734;DHT22;58320;48.804;9.252;2022-11-22T06:51:13;5.50;96.00
70734;DHT22;58320;48.804;9.252;2022-11-22T06:53:43;5.50;96.20
70734;DHT22;58320;48.804;9.252;2022-11-22T06:58:43;5.50;96.30
70734;DHT22;58320;48.804;9.252;2022-11-22T07:01:15;5.50;96.50
70734;DHT22;58320;48.804;9.252;2022-11-22T07:03:44;5.50;96.60
70734;DHT22;58320;48.804;9.252;2022-11-22T07:06:12;5.50;96.60
70734;DHT22;58320;48.804;9.252;2022-11-22T07:08:39;5.50;96.50
70734;DHT22;58320;48.804;9.252;2022-11-22T07:11:06;5.50;96.10
70734;DHT22;58320;48.804;9.252;2022-11-22T07:13:34;5.60;95.60
70734;DHT22;58320;48.804;9.252;2022-11-22T07:16:02;5.60;95.20
70734;DHT22;58320;48.804;9.252;2022-11-22T07:18:30;5.70;94.90
70734;DHT22;58320;48.804;9.252;2022-11-22T07:21:01;5.70;94.60
70734;DHT22;58320;48.804;9.252;2022-11-22T07:23:29;5.70;94.30
70734;DHT22;58320;48.804;9.252;2022-11-22T07:25:55;5.80;93.80
70734;DHT22;58320;48.804;9.252;2022-11-22T07:28:21;5.80;93.70
70734;DHT22;58320;48.804;9.252;2022-11-22T07:30:47;5.80;93.70
70734;DHT22;58320;48.804;9.252;2022-11-22T07:33:13;5.80;93.30
70734;DHT22;58320;48.804;9.252;2022-11-22T07:35:39;5.80;92.80
70734;DHT22;58320;48.804;9.252;2022-11-22T07:38:05;5.80;92.50
70734;DHT22;58320;48.804;9.252;2022-11-22T07:40:31;5.90;92.50
70734;DHT22;58320;48.804;9.252;2022-11-22T07:42:56;5.90;92.10
70734;DHT22;58320;48.804;9.252;2022-11-22T07:45:22;5.90;92.20
70734;DHT22;58320;48.804;9.252;2022-11-22T07:47:48;5.90;91.60
70734;DHT22;58320;48.804;9.252;2022-11-22T07:50:14;6.00;91.80
70734;DHT22;58320;48.804;9.252;2022-11-22T07:52:40;6.00;91.40
70734;DHT22;58320;48.804;9.252;2022-11-22T07:55:06;6.00;90.70
70734;DHT22;58320;48.804;9.252;2022-11-22T07:57:32;6.10;90.70
70734;DHT22;58320;48.804;9.252;2022-11-22T07:59:58;6.10;90.30
70734;DHT22;58320;48.804;9.252;2022-11-22T08:02:25;6.10;90.00
70734;DHT22;58320;48.804;9.252;2022-11-22T08:04:52;6.10;89.70
70734;DHT22;58320;48.804;9.252;2022-11-22T08:07:18;6.20;89.60
70734;DHT22;58320;48.804;9.252;2022-11-22T08:09:43;6.20;90.00
70734;DHT22;58320;48.804;9.252;2022-11-22T08:12:09;6.20;89.60
70734;DHT22;58320;48.804;9.252;2022-11-22T08:14:35;6.20;89.60
70734;DHT22;58320;48.804;9.252;2022-11-22T08:17:01;6.20;89.50
70734;DHT22;58320;48.804;9.252;2022-11-22T08:19:28;6.30;89.60
70734;DHT22;58320;48.804;9.252;2022-11-22T08:21:54;6.30;89.70
70734;DHT22;58320;48.804;9.252;2022-11-22T08:24:20;6.30;89.50
70734;DHT22;58320;48.804;9.252;2022-11-22T08:26:46;6.30;89.70
70734;DHT22;58320;48.804;9.252;2022-11-22T08:29:12;6.40;89.30
70734;DHT22;58320;48.804;9.252;2022-11-22T08:31:38;6.40;89.60
70734;DHT22;58320;48.804;9.252;2022-11-22T08:34:05;6.40;89.00
70734;DHT22;58320;48.804;9.252;2022-11-22T08:36:31;6.50;89.00
70734;DHT22;58320;48.804;9.252;2022-11-22T08:38:57;6.50;88.50
70734;DHT22;58320;48.804;9.252;2022-11-22T08:41:24;6.60;88.90
70734;DHT22;58320;48.804;9.252;2022-11-22T08:43:51;6.60;87.60
70734;DHT22;58320;48.804;9.252;2022-11-22T08:46:17;6.70;88.10
70734;DHT22;58320;48.804;9.252;2022-11-22T08:48:44;6.80;87.70
70734;DHT22;58320;48.804;9.252;2022-11-22T08:51:12;6.80;87.90
70734;DHT22;58320;48.804;9.252;2022-11-22T08:53:41;6.90;86.90
70734;DHT22;58320;48.804;9.252;2022-11-22T08:56:11;7.00;86.60
70734;DHT22;58320;48.804;9.252;2022-11-22T08:58:39;7.00;86.40
70734;DHT22;58320;48.804;9.252;2022-11-22T09:01:14;7.10;86.20
70734;DHT22;58320;48.804;9.252;2022-11-22T09:03:41;7.20;85.00
70734;DHT22;58320;48.804;9.252;2022-11-22T09:06:11;7.30;85.00
70734;DHT22;58320;48.804;9.252;2022-11-22T09:08:38;7.30;84.60
70734;DHT22;58320;48.804;9.252;2022-11-22T09:11:07;7.30;83.50
70734;DHT22;58320;48.804;9.252;2022-11-22T09:13:35;7.40;84.10
70734;DHT22;58320;48.804;9.252;2022-11-22T09:16:06;7.50;83.50
70734;DHT22;58320;48.804;9.252;2022-11-22T09:18:42;7.60;83.70
70734;DHT22;58320;48.804;9.252;2022-11-22T09:21:11;7.70;82.50
70734;DHT22;58320;48.804;9.252;2022-11-22T09:23:43;7.70;82.50
70734;DHT22;58320;48.804;9.252;2022-11-22T09:26:14;7.70;82.80
70734;DHT22;58320;48.804;9.252;2022-11-22T09:28:43;7.80;82.90
70734;DHT22;58320;48.804;9.252;2022-11-22T09:31:12;7.90;81.60
70734;DHT22;58320;48.804;9.252;2022-11-22T09:33:40;7.90;81.00
70734;DHT22;58320;48.804;9.252;2022-11-22T09:36:21;7.80;80.70
70734;DHT22;58320;48.804;9.252;2022-11-22T09:38:49;7.80;81.50
70734;DHT22;58320;48.804;9.252;2022-11-22T09:47:19;8.00;80.60
70734;DHT22;58320;48.804;9.252;2022-11-22T09:53:11;8.00;80.20
70734;DHT22;58320;48.804;9.252;2022-11-22T10:00:41;8.10;79.90
70734;DHT22;58320;48.804;9.252;2022-11-22T10:06:12;8.20;79.40
70734;DHT22;58320;48.804;9.252;2022-11-22T10:11:43;8.00;79.40
70734;DHT22;58320;48.804;9.252;2022-11-22T10:14:36;7.90;80.20
70734;DHT22;58320;48.804;9.252;2022-11-22T10:20:28;8.00;78.60
70734;DHT22;58320;48.804;9.252;2022-11-22T10:22:56;8.10;79.40
70734;DHT22;58320;48.804;9.252;2022-11-22T10:25:39;8.20;78.60
70734;DHT22;58320;48.804;9.252;2022-11-22T10:31:17;8.20;77.40
70734;DHT22;58320;48.804;9.252;2022-11-22T10:45:21;8.10;76.70
70734;DHT22;58320;48.804;9.252;2022-11-22T10:50:59;8.10;76.10
70734;DHT22;58320;48.804;9.252;2022-11-22T10:53:49;8.20;76.00
70734;DHT22;58320;48.804;9.252;2022-11-22T11:04:59;8.40;75.10
70734;DHT22;58320;48.804;9.252;2022-11-22T11:07:28;8.60;74.40
70734;DHT22;58320;48.804;9.252;2022-11-22T11:10:21;8.80;73.60
70734;DHT22;58320;48.804;9.252;2022-11-22T11:13:01;8.90;73.40
70734;DHT22;58320;48.804;9.252;2022-11-22T11:15:41;9.00;71.60
70734;DHT22;58320;48.804;9.252;2022-11-22T11:21:12;8.70;70.10
70734;DHT22;58320;48.804;9.252;2022-11-22T11:23:39;8.70;68.30
70734;DHT22;58320;48.804;9.252;2022-11-22T11:26:28;8.70;68.10
70734;DHT22;58320;48.804;9.252;2022-11-22T11:32:05;8.80;67.70
70734;DHT22;58320;48.804;9.252;2022-11-22T11:34:31;8.90;67.10
70734;DHT22;58320;48.804;9.252;2022-11-22T11:36:59;9.10;66.80
70734;DHT22;58320;48.804;9.252;2022-11-22T11:39:31;9.10;66.40
70734;DHT22;58320;48.804;9.252;2022-11-22T11:41:58;9.10;66.60
70734;DHT22;58320;48.804;9.252;2022-11-22T11:47:00;9.10;66.30
70734;DHT22;58320;48.804;9.252;2022-11-22T11:49:31;9.20;66.90
70734;DHT22;58320;48.804;9.252;2022-11-22T11:52:03;9.20;66.00
70734;DHT22;58320;48.804;9.252;2022-11-22T11:54:43;9.40;65.50
70734;DHT22;58320;48.804;9.252;2022-11-22T11:57:13;9.40;65.20
70734;DHT22;58320;48.804;9.252;2022-11-22T11:59:49;9.50;63.50
70734;DHT22;58320;48.804;9.252;2022-11-22T12:04:57;9.50;62.60
70734;DHT22;58320;48.804;9.252;2022-11-22T12:07:45;9.60;61.70
70734;DHT22;58320;48.804;9.252;2022-11-22T12:10:42;9.70;61.40
70734;DHT22;58320;48.804;9.252;2022-11-22T12:18:56;10.10;61.20
70734;DHT22;58320;48.804;9.252;2022-11-22T12:24:49;10.20;60.20
70734;DHT22;58320;48.804;9.252;2022-11-22T12:27:24;10.30;61.20
70734;DHT22;58320;48.804;9.252;2022-11-22T12:29:51;10.50;60.60
70734;DHT22;58320;48.804;9.252;2022-11-22T12:32:35;10.80;59.60
70734;DHT22;58320;48.804;9.252;2022-11-22T12:35:13;10.90;58.90
70734;DHT22;58320;48.804;9.252;2022-11-22T12:40:23;10.70;59.20
70734;DHT22;58320;48.804;9.252;2022-11-22T12:45:50;10.60;59.00
70734;DHT22;58320;48.804;9.252;2022-11-22T12:49:10;10.80;58.20
70734;DHT22;58320;48.804;9.252;2022-11-22T12:54:08;10.70;56.90
70734;DHT22;58320;48.804;9.252;2022-11-22T12:56:48;10.70;58.20
70734;DHT22;58320;48.804;9.252;2022-11-22T12:59:27;10.70;57.20
70734;DHT22;58320;48.804;9.252;2022-11-22T13:02:38;10.60;57.80
70734;DHT22;58320;48.804;9.252;2022-11-22T13:05:09;10.70;58.70
70734;DHT22;58320;48.804;9.252;2022-11-22T13:08:12;10.70;59.00
70734;DHT22;58320;48.804;9.252;2022-11-22T13:16:05;10.70;58.70
70734;DHT22;58320;48.804;9.252;2022-11-22T13:19:20;10.50;59.40
70734;DHT22;58320;48.804;9.252;2022-11-22T13:27:47;10.10;59.40
70734;DHT22;58320;48.804;9.252;2022-11-22T13:30:18;9.90;59.60
70734;DHT22;58320;48.804;9.252;2022-11-22T13:32:54;9.70;60.70
70734;DHT22;58320;48.804;9.252;2022-11-22T13:35:35;9.60;61.50
70734;DHT22;58320;48.804;9.252;2022-11-22T13:38:13;9.70;61.80
70734;DHT22;58320;48.804;9.252;2022-11-22T13:40:46;9.70;61.90
70734;DHT22;58320;48.804;9.252;2022-11-22T13:45:51;9.60;60.60
70734;DHT22;58320;48.804;9.252;2022-11-22T13:58:51;9.10;61.20
70734;DHT22;58320;48.804;9.252;2022-11-22T14:04:28;9.10;60.70
70734;DHT22;58320;48.804;9.252;2022-11-22T14:24:32;8.90;62.10
70734;DHT22;58320;48.804;9.252;2022-11-22T14:30:13;8.70;63.20
70734;DHT22;58320;48.804;9.252;2022-11-22T14:40:49;8.60;62.80
70734;DHT22;58320;48.804;9.252;2022-11-22T14:43:23;8.60;62.90
70734;DHT22;58320;48.804;9.252;2022-11-22T14:45:57;8.50;64.40
70734;DHT22;58320;48.804;9.252;2022-11-22T14:48:31;8.50;63.60
70734;DHT22;58320;48.804;9.252;2022-11-22T14:56:28;8.40;63.40
70734;DHT22;58320;48.804;9.252;2022-11-22T14:59:26;8.30;63.90
70734;DHT22;58320;48.804;9.252;2022-11-22T15:02:37;8.30;64.30
70734;DHT22;58320;48.804;9.252;2022-11-22T15:08:14;8.10;65.00
70734;DHT22;58320;48.804;9.252;2022-11-22T15:16:20;7.90;65.90
70734;DHT22;58320;48.804;9.252;2022-11-22T15:18:51;7.80;66.00
70734;DHT22;58320;48.804;9.252;2022-11-22T15:21:34;7.80;66.50
70734;DHT22;58320;48.804;9.252;2022-11-22T15:24:01;7.70;66.60
70734;DHT22;58320;48.804;9.252;2022-11-22T15:26:29;7.70;66.70
70734;DHT22;58320;48.804;9.252;2022-11-22T15:28:57;7.70;67.40
70734;DHT22;58320;48.804;9.252;2022-11-22T15:31:27;7.60;67.80
70734;DHT22;58320;48.804;9.252;2022-11-22T15:33:56;7.60;67.70
70734;DHT22;58320;48.804;9.252;2022-11-22T15:36:53;7.50;67.90
70734;DHT22;58320;48.804;9.252;2022-11-22T15:39:27;7.50;68.30
70734;DHT22;58320;48.804;9.252;2022-11-22T15:41:54;7.50;68.50
70734;DHT22;58320;48.804;9.252;2022-11-22T15:44:22;7.50;68.70
70734;DHT22;58320;48.804;9.252;2022-11-22T15:46:49;7.50;68.80
70734;DHT22;58320;48.804;9.252;2022-11-22T15:49:16;7.50;69.20
70734;DHT22;58320;48.804;9.252;2022-11-22T15:51:56;7.60;68.30
70734;DHT22;58320;48.804;9.252;2022-11-22T15:54:34;7.60;68.90
70734;DHT22;58320;48.804;9.252;2022-11-22T15:57:33;7.60;68.50
70734;DHT22;58320;48.804;9.252;2022-11-22T16:00:01;7.60;68.10
70734;DHT22;58320;48.804;9.252;2022-11-22T16:02:33;7.60;68.40
70734;DHT22;58320;48.804;9.252;2022-11-22T16:05:05;7.60;68.20
70734;DHT22;58320;48.804;9.252;2022-11-22T16:07:40;7.60;67.70
70734;DHT22;58320;48.804;9.252;2022-11-22T16:10:17;7.60;67.40
70734;DHT22;58320;48.804;9.252;2022-11-22T16:12:45;7.70;67.70
70734;DHT22;58320;48.804;9.252;2022-11-22T16:17:49;7.60;68.50
70734;DHT22;58320;48.804;9.252;2022-11-22T16:20:32;7.60;68.80
70734;DHT22;58320;48.804;9.252;2022-11-22T16:25:35;7.50;69.00
70734;DHT22;58320;48.804;9.252;2022-11-22T16:30:55;7.50;69.40
70734;DHT22;58320;48.804;9.252;2022-11-22T16:33:23;7.40;69.60
70734;DHT22;58320;48.804;9.252;2022-11-22T16:35:53;7.40;69.70
70734;DHT22;58320;48.804;9.252;2022-11-22T16:38:20;7.40;70.00
70734;DHT22;58320;48.804;9.252;2022-11-22T16:40:47;7.40;70.20
70734;DHT22;58320;48.804;9.252;2022-11-22T16:45:41;7.50;70.00
70734;DHT22;58320;48.804;9.252;2022-11-22T16:48:19;7.40;70.10
70734;DHT22;58320;48.804;9.252;2022-11-22T16:50:55;7.40;70.30
70734;DHT22;58320;48.804;9.252;2022-11-22T16:53:22;7.50;70.10
70734;DHT22;58320;48.804;9.252;2022-11-22T16:55:48;7.50;70.40
70734;DHT22;58320;48.804;9.252;2022-11-22T16:58:16;7.50;70.70
70734;DHT22;58320;48.804;9.252;2022-11-22T17:00:47;7.50;70.70
70734;DHT22;58320;48.804;9.252;2022-11-22T17:03:17;7.50;70.90
70734;DHT22;58320;48.804;9.252;2022-11-22T17:05:44;7.50;70.40
70734;DHT22;58320;48.804;9.252;2022-11-22T17:08:16;7.50;70.50
70734;DHT22;58320;48.804;9.252;2022-11-22T17:10:45;7.50;70.80
70734;DHT22;58320;48.804;9.252;2022-11-22T17:13:16;7.50;70.30
70734;DHT22;58320;48.804;9.252;2022-11-22T17:15:53;7.50;70.50
70734;DHT22;58320;48.804;9.252;2022-11-22T17:18:20;7.50;70.40
70734;DHT22;58320;48.804;9.252;2022-11-22T17:20:46;7.50;70.00
70734;DHT22;58320;48.804;9.252;2022-11-22T17:23:33;7.60;70.10
70734;DHT22;58320;48.804;9.252;2022-11-22T17:26:01;7.60;70.00
70734;DHT22;58320;48.804;9.252;2022-11-22T17:28:27;7.60;70.40
70734;DHT22;58320;48.804;9.252;2022-11-22T17:30:56;7.60;70.60
70734;DHT22;58320;48.804;9.252;2022-11-22T17:33:23;7.60;70.20
70734;DHT22;58320;48.804;9.252;2022-11-22T17:35:50;7.60;70.50
70734;DHT22;58320;48.804;9.252;2022-11-22T17:38:16;7.60;70.70
70734;DHT22;58320;48.804;9.252;2022-11-22T17:40:42;7.60;70.60
70734;DHT22;58320;48.804;9.252;2022-11-22T17:43:12;7.70;70.30
70734;DHT22;58320;48.804;9.252;2022-11-22T17:45:44;7.70;70.70
70734;DHT22;58320;48.804;9.252;2022-11-22T17:48:10;7.70;70.90
70734;DHT22;58320;48.804;9.252;2022-11-22T17:50:37;7.70;70.70
70734;DHT22;58320;48.804;9.252;2022-11-22T17:53:03;7.70;70.70
70734;DHT22;58320;48.804;9.252;2022-11-22T17:55:30;7.70;70.80
70734;DHT22;58320;48.804;9.252;2022-11-22T17:57:56;7.70;71.20
70734;DHT22;58320;48.804;9.252;2022-11-22T18:00:21;7.70;70.80
70734;DHT22;58320;48.804;9.252;2022-11-22T18:02:47;7.70;71.10
70734;DHT22;58320;48.804;9.252;2022-11-22T18:05:13;7.70;71.20
70734;DHT22;58320;48.804;9.252;2022-11-22T18:07:39;7.70;71.60
70734;DHT22;58320;48.804;9.252;2022-11-22T18:10:07;7.70;71.20
70734;DHT22;58320;48.804;9.252;2022-11-22T18:12:35;7.70;71.40
70734;DHT22;58320;48.804;9.252;2022-11-22T18:15:03;7.70;71.50
70734;DHT22;58320;48.804;9.252;2022-11-22T18:17:33;7.60;71.70
70734;DHT22;58320;48.804;9.252;2022-11-22T18:20:00;7.60;72.20
70734;DHT22;58320;48.804;9.252;2022-11-22T18:22:27;7.60;72.00
70734;DHT22;58320;48.804;9.252;2022-11-22T18:24:53;7.50;72.10
70734;DHT22;58320;48.804;9.252;2022-11-22T18:27:19;7.50;72.30
70734;DHT22;58320;48.804;9.252;2022-11-22T18:29:45;7.50;72.70
70734;DHT22;58320;48.804;9.252;2022-11-22T18:32:11;7.50;72.70
70734;DHT22;58320;48.804;9.252;2022-11-22T18:34:37;7.50;72.90
70734;DHT22;58320;48.804;9.252;2022-11-22T18:37:03;7.40;73.40
70734;DHT22;58320;48.804;9.252;2022-11-22T18:39:31;7.40;73.50
70734;DHT22;58320;48.804;9.252;2022-11-22T18:41:58;7.40;73.70
70734;DHT22;58320;48.804;9.252;2022-11-22T18:44:24;7.40;74.30
70734;DHT22;58320;48.804;9.252;2022-11-22T18:46:50;7.40;74.00
70734;DHT22;58320;48.804;9.252;2022-11-22T18:49:16;7.40;74.20
70734;DHT22;58320;48.804;9.252;2022-11-22T18:51:42;7.40;74.10